Rushford, MN (55971)

12:03 AM CDT on July 30, 2016 (GMT -0500)
500 Nannestad Lane | | Change Station

Elev 728 ft 43.81 °N, 91.75 °W | Updated 4 minutes ago

Clear
Clear
63.5 °F
Feels Like 63.5 °F
N
0.0
Wind Variable Wind from East

Today
High -- | Low -- °F
--% Chance of Precip.
Yesterday
High -- | Low -- °F
Precip. -- in
Pressure 30.02 in
Visibility 5.0 miles
Clouds Clear
Dew Point 63 °F
Humidity 99%
Rainfall in
Snow Depth Not available.
5:54 AM 8:32 PM
Waning Crescent, 16% visible
METAR KONA 300453Z AUTO 00000KT 5SM BR CLR 19/18 A3002 RMK AO2
Pressure 30.02 in
Visibility 5.0 miles
Clouds Clear
Dew Point 63 °F
Humidity 99%
Rainfall in
Snow Depth Not available.
5:54 AM 8:32 PM
Waning Crescent, 16% visible
METAR KONA 300453Z AUTO 00000KT 5SM BR CLR 19/18 A3002 RMK AO2

10-Day Weather Forecast

Almanac

Astronomy

Jul. 30, 2016 Rise Set
Actual Time
Civil Twilight
Nautical Twilight
Astronomical Twilight
Moon
Length of Visible Light
Length of Day
Tomorrow will be .
, % of the Moon is Illuminated

Today's Extremes

State Highs State Lows

Community

WunderPhotos

Upload Photos

1,928,506 photos uploaded!

WunderBlog® & News

Nearby

Air Quality

  Air Quality AQ Index Pollutant
Not available.

Snow Depth

Station Depth Elevation

Earthquake Activity

City Distance Mag. Time & Date
Minimum magnitude displayed is 2.5.

Coastal Water Temperatures

Place Temperature

Stations

Nearby Weather Stations

Station Location Temp. Windchill Dew Point Humidity Wind Precip. Elev Updated Type
                   

Watches & Warnings

There are currently no watches in effect.